Time;durP1;ratioP1;P1;durP2;ratioP2;P2;SDS_P1;SDS_P2;PMS_P1;PMS_P2;Temp;Humidity;BMP_temperature;BMP_pressure;BME280_temperature;BME280_humidity;BME280_pressure;Samples;Min_cycle;Max_cycle;Signal;HPM_P1;HPM_P2
2023/08/12 00:02:51;;;;;;;0.20;0.20;;;;;;;28.40;100.00;101774.53;10481854;28;20677;-80
2023/08/12 00:07:53;;;;;;;0.38;0.22;;;;;;;28.40;100.00;101775.44;10513554;28;20565;-80
2023/08/12 00:12:55;;;;;;;0.30;0.30;;;;;;;27.52;100.00;101776.53;10497463;28;20499;-80
2023/08/12 00:17:56;;;;;;;0.30;0.30;;;;;;;28.02;100.00;101769.63;10501209;28;20491;-80
2023/08/12 00:22:58;;;;;;;0.73;0.30;;;;;;;27.92;100.00;101773.50;10479272;28;20049;-81
2023/08/12 00:28:00;;;;;;;0.63;0.52;;;;;;;27.90;100.00;101759.44;10475749;28;20048;-81
2023/08/12 00:33:02;;;;;;;0.22;0.20;;;;;;;27.94;100.00;101759.28;10481412;28;20044;-81
2023/08/12 00:38:03;;;;;;;0.57;0.38;;;;;;;28.06;100.00;101759.84;10464763;28;20048;-81
2023/08/12 00:43:05;;;;;;;1.00;0.63;;;;;;;28.24;100.00;101747.75;10481834;28;20067;-81
2023/08/12 00:48:08;;;;;;;0.40;0.40;;;;;;;27.95;100.00;101747.78;10480696;28;20510;-80
2023/08/12 00:53:15;;;;;;;0.28;0.15;;;;;;;27.99;100.00;101749.44;10465182;28;20049;-81
2023/08/12 00:58:17;;;;;;;0.75;0.35;;;;;;;28.31;100.00;101744.81;10474697;28;20151;-80
2023/08/12 01:03:19;;;;;;;0.73;0.47;;;;;;;28.25;100.00;101736.22;10512261;28;20075;-81
2023/08/12 01:08:22;;;;;;;0.63;0.52;;;;;;;29.01;100.00;101734.31;10464687;28;20142;-81
2023/08/12 01:13:32;;;;;;;0.73;0.43;;;;;;;28.77;100.00;101721.09;10481098;28;20040;-81
2023/08/12 01:18:35;;;;;;;0.00;0.00;;;;;;;28.79;100.00;101718.38;10485183;28;20095;-81
2023/08/12 01:23:38;;;;;;;0.10;0.10;;;;;;;28.50;100.00;101713.19;10464710;28;20041;-81
2023/08/12 01:28:39;;;;;;;0.30;0.20;;;;;;;27.90;100.00;101717.06;10474170;28;20102;-80
2023/08/12 01:33:54;;;;;;;1.55;0.40;;;;;;;28.41;100.00;101708.22;10487209;28;20534;-80
2023/08/12 01:38:58;;;;;;;0.77;0.43;;;;;;;27.74;100.00;101698.22;10478106;28;20052;-80
2023/08/12 01:44:03;;;;;;;0.40;0.30;;;;;;;27.93;100.00;101704.59;10480347;28;20514;-79
2023/08/12 01:49:04;;;;;;;0.47;0.30;;;;;;;28.02;100.00;101696.34;10471886;28;20053;-80
2023/08/12 01:54:06;;;;;;;0.17;0.17;;;;;;;28.01;100.00;101693.75;10460915;28;20044;-80
2023/08/12 01:59:08;;;;;;;0.45;0.40;;;;;;;27.63;100.00;101680.88;10478027;28;20139;-80
2023/08/12 02:04:09;;;;;;;0.22;0.22;;;;;;;27.92;100.00;101678.19;10458644;28;20499;-81
2023/08/12 02:09:12;;;;;;;0.57;0.32;;;;;;;28.12;100.00;101682.81;10484992;28;20047;-81
2023/08/12 02:14:13;;;;;;;0.45;0.20;;;;;;;28.11;100.00;101681.94;10484639;28;20553;-81
2023/08/12 02:19:15;;;;;;;1.10;0.68;;;;;;;28.17;100.00;101678.19;10473978;28;20068;-81
2023/08/12 02:24:17;;;;;;;0.82;0.45;;;;;;;27.72;100.00;101669.16;10464328;28;20052;-82
2023/08/12 02:29:18;;;;;;;0.20;0.20;;;;;;;28.40;100.00;101658.81;10472217;28;20053;-81
2023/08/12 02:34:20;;;;;;;0.50;0.40;;;;;;;28.14;100.00;101657.13;10485734;28;20047;-81
2023/08/12 02:39:22;;;;;;;0.20;0.00;;;;;;;28.33;100.00;101652.03;10470378;28;20047;-81
2023/08/12 02:44:23;;;;;;;0.20;0.20;;;;;;;28.22;100.00;101659.50;10472603;28;20076;-80
2023/08/12 02:49:25;;;;;;;0.20;0.10;;;;;;;28.21;100.00;101660.41;10459652;28;20118;-81
2023/08/12 02:54:27;;;;;;;0.25;0.20;;;;;;;27.71;100.00;101646.25;10474285;28;20487;-81
2023/08/12 02:59:29;;;;;;;0.20;0.20;;;;;;;26.88;100.00;101648.00;10455865;28;20052;-80
2023/08/12 03:04:31;;;;;;;0.80;0.45;;;;;;;27.38;100.00;101641.13;10465229;28;20475;-80
2023/08/12 03:09:33;;;;;;;0.17;0.10;;;;;;;27.82;100.00;101641.41;10502943;28;20056;-80
2023/08/12 03:14:35;;;;;;;2.95;0.70;;;;;;;27.27;100.00;101643.28;10462811;28;20533;-81
2023/08/12 03:19:36;;;;;;;0.68;0.40;;;;;;;27.31;100.00;101629.00;10485634;28;20045;-80
2023/08/12 03:24:38;;;;;;;0.45;0.30;;;;;;;27.28;100.00;101623.84;10485813;28;20467;-80
2023/08/12 03:29:40;;;;;;;0.35;0.30;;;;;;;27.21;100.00;101618.75;10488579;28;20056;-80
2023/08/12 03:34:42;;;;;;;0.10;0.10;;;;;;;27.36;100.00;101611.22;10480586;28;20045;-80
2023/08/12 03:39:47;;;;;;;0.45;0.45;;;;;;;27.06;100.00;101609.53;10500671;28;20052;-80
2023/08/12 03:44:50;;;;;;;0.30;0.20;;;;;;;27.33;100.00;101611.31;10493056;28;20048;-80
2023/08/12 03:49:51;;;;;;;0.75;0.40;;;;;;;27.35;100.00;101605.06;10476709;28;20044;-80
2023/08/12 03:54:53;;;;;;;1.55;0.28;;;;;;;27.77;100.00;101601.00;10481836;28;20052;-80
2023/08/12 03:59:55;;;;;;;0.57;0.45;;;;;;;27.53;100.00;101611.53;10486508;28;20052;-79
2023/08/12 04:04:57;;;;;;;0.65;0.38;;;;;;;27.76;100.00;101604.56;10485575;28;20110;-80
2023/08/12 04:09:59;;;;;;;0.32;0.25;;;;;;;27.42;100.00;101595.19;10471563;28;20059;-79
2023/08/12 04:15:04;;;;;;;0.43;0.30;;;;;;;27.50;100.00;101590.50;10479063;28;20139;-80
2023/08/12 04:20:06;;;;;;;0.25;0.25;;;;;;;27.21;100.00;101576.44;10475363;28;20419;-79
2023/08/12 04:25:10;;;;;;;1.65;0.85;;;;;;;27.53;100.00;101577.13;10494087;28;20112;-80
2023/08/12 04:30:12;;;;;;;0.60;0.35;;;;;;;27.23;100.00;101577.22;10476538;28;20503;-80
2023/08/12 04:35:13;;;;;;;0.17;0.17;;;;;;;27.38;100.00;101573.22;10478166;28;20066;-80
2023/08/12 04:40:17;;;;;;;0.30;0.25;;;;;;;27.25;100.00;101569.28;10464459;28;20054;-80
2023/08/12 04:45:20;;;;;;;0.60;0.28;;;;;;;27.15;100.00;101558.09;10487101;28;20050;-79
2023/08/12 04:50:22;;;;;;;0.38;0.25;;;;;;;27.13;100.00;101551.13;10460809;28;20049;-79
2023/08/12 04:55:25;;;;;;;0.15;0.15;;;;;;;27.47;100.00;101545.59;10475651;28;20049;-79
2023/08/12 05:00:27;;;;;;;0.43;0.43;;;;;;;27.08;100.00;101532.78;10463140;28;20052;-79
2023/08/12 05:05:32;;;;;;;1.20;0.68;;;;;;;26.68;100.00;101536.72;10472655;28;20064;-79
2023/08/12 05:10:34;;;;;;;0.50;0.40;;;;;;;27.15;100.00;101525.53;10457914;28;20060;-79
2023/08/12 05:15:36;;;;;;;0.20;0.20;;;;;;;27.15;100.00;101523.72;10482631;28;20036;-79
2023/08/12 05:20:42;;;;;;;1.15;0.70;;;;;;;27.37;100.00;101517.69;10489979;28;20052;-79
2023/08/12 05:25:47;;;;;;;3.13;1.23;;;;;;;27.59;100.00;101522.28;10488928;28;20119;-78
2023/08/12 05:30:49;;;;;;;0.82;0.52;;;;;;;27.24;100.00;101527.84;10477749;28;20059;-79
2023/08/12 05:35:51;;;;;;;4.10;0.75;;;;;;;27.52;100.00;101518.97;10481088;28;20094;-79
2023/08/12 05:40:52;;;;;;;0.77;0.70;;;;;;;28.49;100.00;101512.69;10476202;28;20040;-78
2023/08/12 05:45:54;;;;;;;1.05;0.50;;;;;;;27.37;100.00;101518.56;10492387;28;20411;-78
2023/08/12 05:50:55;;;;;;;0.50;0.17;;;;;;;27.60;100.00;101518.69;10448348;28;20052;-79
2023/08/12 05:55:57;;;;;;;1.17;1.02;;;;;;;27.57;100.00;101518.81;10460602;28;20044;-84
2023/08/12 06:00:59;;;;;;;3.15;0.80;;;;;;;27.58;100.00;101523.19;10502680;28;20573;-84
2023/08/12 06:06:00;;;;;;;1.15;0.90;;;;;;;27.60;100.00;101513.41;10482498;28;20044;-84
2023/08/12 06:11:02;;;;;;;1.05;0.90;;;;;;;27.89;100.00;101512.34;10489529;28;20465;-81
2023/08/12 06:16:04;;;;;;;6.70;0.73;;;;;;;28.15;100.00;101506.09;10483825;28;20059;-81
2023/08/12 06:21:06;;;;;;;1.60;1.05;;;;;;;27.13;100.00;101503.53;10479983;28;20082;-83
2023/08/12 06:26:07;;;;;;;1.95;1.13;;;;;;;27.19;100.00;101498.03;10460102;28;20121;-83
2023/08/12 06:31:09;;;;;;;5.22;2.38;;;;;;;27.28;100.00;101504.81;10475364;28;20406;-86
2023/08/12 06:36:11;;;;;;;6.10;1.73;;;;;;;27.12;100.00;101494.75;10456190;28;20040;-86
2023/08/12 06:41:12;;;;;;;1.65;0.80;;;;;;;27.09;100.00;101476.34;10493110;28;20048;-86
2023/08/12 06:46:14;;;;;;;5.82;1.38;;;;;;;26.98;100.00;101467.91;10509824;28;20059;-86
2023/08/12 06:51:16;;;;;;;2.38;0.98;;;;;;;27.12;100.00;101475.38;10487886;28;20135;-85
2023/08/12 06:56:17;;;;;;;2.08;0.80;;;;;;;26.96;100.00;101464.47;10501495;28;20029;-87
2023/08/12 07:01:19;;;;;;;0.93;0.77;;;;;;;29.94;100.00;101612.88;10489560;28;20068;-86
2023/08/12 07:06:22;;;;;;;2.40;0.85;;;;;;;30.10;100.00;133142.59;10477541;28;20408;-86
2023/08/12 07:11:23;;;;;;;4.32;1.42;;;;;;;28.31;100.00;150241.28;10483587;28;20135;-86
2023/08/12 07:16:25;;;;;;;0.40;0.40;;;;;;;35.00;100.00;151887.22;10477583;28;20445;-86
2023/08/12 07:21:27;;;;;;;2.38;1.65;;;;;;;38.70;100.00;152800.13;10487309;28;20132;-87
2023/08/12 07:26:29;;;;;;;1.15;0.63;;;;;;;45.94;97.14;152940.50;10478371;28;20072;-86
2023/08/12 07:31:30;;;;;;;1.48;1.13;;;;;;;-146.30;100.00;58188.94;10489926;28;20048;-86
2023/08/12 07:36:32;;;;;;;0.98;0.45;;;;;;;-146.30;100.00;58188.94;10483107;28;20115;-87
2023/08/12 07:41:35;;;;;;;0.73;0.13;;;;;;;50.69;96.67;125850.44;10484459;28;20056;-87
2023/08/12 07:46:37;;;;;;;0.73;0.30;;;;;;;52.57;97.03;121688.47;10486543;28;20449;-86
2023/08/12 07:51:38;;;;;;;0.57;0.38;;;;;;;52.16;100.00;123935.28;10479666;28;20045;-84
2023/08/12 07:56:40;;;;;;;1.10;0.40;;;;;;;56.90;nan;125835.47;10474573;28;20318;-84
2023/08/12 08:01:42;;;;;;;0.38;0.38;;;;;;;-146.30;100.00;58188.94;10484663;28;20036;-83
2023/08/12 08:06:43;;;;;;;1.85;0.95;;;;;;;-146.30;100.00;58188.94;10487717;28;20091;-84
2023/08/12 08:11:45;;;;;;;0.85;0.63;;;;;;;36.93;nan;117680.28;10490658;28;20056;-83
2023/08/12 08:16:47;;;;;;;0.80;0.32;;;;;;;36.41;nan;118566.44;10489095;28;20495;-83
2023/08/12 08:21:48;;;;;;;0.40;0.40;;;;;;;37.23;nan;120301.59;10466044;28;20141;-83
2023/08/12 08:26:50;;;;;;;1.00;0.50;;;;;;;36.11;nan;121321.06;10467922;28;20055;-83
2023/08/12 08:31:52;;;;;;;1.45;1.17;;;;;;;35.71;nan;125902.63;10479847;28;20086;-83
2023/08/12 08:36:54;;;;;;;0.77;0.50;;;;;;;36.29;nan;133727.50;10475081;28;20395;-83
2023/08/12 08:41:56;;;;;;;1.55;1.27;;;;;;;36.13;nan;130380.19;10486523;28;20098;-83
2023/08/12 08:46:59;;;;;;;0.40;0.38;;;;;;;36.79;nan;118484.75;10498382;28;20043;-82
2023/08/12 08:52:01;;;;;;;0.47;0.40;;;;;;;33.16;nan;115497.75;10464965;28;20624;-83
2023/08/12 08:57:04;;;;;;;0.52;0.52;;;;;;;33.82;nan;106857.78;10479873;28;20106;-83
2023/08/12 09:02:21;;;;;;;0.10;0.10;;;;;;;34.64;nan;108483.25;10470669;28;20051;-83
2023/08/12 09:07:23;;;;;;;0.30;0.30;;;;;;;33.10;nan;113637.34;10492517;28;20090;-83
2023/08/12 09:12:25;;;;;;;0.40;0.28;;;;;;;32.69;nan;111559.06;10479422;28;20419;-83
2023/08/12 09:17:27;;;;;;;0.10;0.10;;;;;;;31.96;nan;122218.50;10474781;28;20565;-83
2023/08/12 09:22:28;;;;;;;0.30;0.28;;;;;;;32.03;nan;132507.50;10478785;28;20071;-83
2023/08/12 09:27:32;;;;;;;0.10;0.10;;;;;;;32.09;nan;128992.19;10475379;28;20121;-84
2023/08/12 09:32:38;;;;;;;0.20;0.10;;;;;;;30.81;nan;126177.16;10472699;28;20206;-82
2023/08/12 09:37:41;;;;;;;0.22;0.17;;;;;;;31.66;nan;126124.06;10462054;28;20235;-83
2023/08/12 09:42:46;;;;;;;0.20;0.10;;;;;;;31.63;nan;151058.41;10477519;28;20133;-83
2023/08/12 09:47:48;;;;;;;0.20;0.20;;;;;;;31.74;nan;126585.94;10477458;28;20044;-84
2023/08/12 09:52:50;;;;;;;0.00;0.00;;;;;;;32.62;nan;101309.69;10474718;28;20483;-83
2023/08/12 09:57:53;;;;;;;0.10;0.10;;;;;;;32.62;nan;100413.59;10476831;28;20102;-84
2023/08/12 10:02:55;;;;;;;0.40;0.30;;;;;;;31.08;nan;98619.50;10464350;28;20104;-84
2023/08/12 10:07:58;;;;;;;0.10;0.08;;;;;;;31.53;nan;99435.66;10494174;28;20059;-83
2023/08/12 10:13:01;;;;;;;0.47;0.13;;;;;;;31.60;nan;99798.84;10454244;28;20072;-83
2023/08/12 10:18:05;;;;;;;0.47;0.35;;;;;;;31.82;nan;100217.91;10479546;28;20491;-83
2023/08/12 10:23:16;;;;;;;0.05;0.00;;;;;;;31.62;nan;100766.00;10486837;28;20045;-83
2023/08/12 10:28:19;;;;;;;0.20;0.20;;;;;;;30.79;nan;101335.06;10466144;28;20392;-83
2023/08/12 10:33:21;;;;;;;0.20;0.20;;;;;;;31.83;nan;101356.94;10482668;28;20051;-83
2023/08/12 10:38:25;;;;;;;0.35;0.30;;;;;;;32.01;nan;101367.47;10511379;28;20104;-82
2023/08/12 10:43:27;;;;;;;0.00;0.00;;;;;;;32.31;nan;101340.00;10482407;28;20048;-83
2023/08/12 10:48:28;;;;;;;0.00;0.00;;;;;;;32.97;nan;101345.84;10494464;28;20411;-81
2023/08/12 10:53:35;;;;;;;0.05;0.05;;;;;;;33.26;nan;101375.19;10500723;28;20036;-83
2023/08/12 10:58:47;;;;;;;0.20;0.20;;;;;;;33.34;nan;101389.81;10495549;28;20547;-83
2023/08/12 11:03:49;;;;;;;0.05;0.05;;;;;;;32.07;nan;101399.09;10471091;28;20052;-84
2023/08/12 11:08:55;;;;;;;0.00;0.00;;;;;;;33.16;nan;101397.16;10480462;28;20041;-82
2023/08/12 11:13:57;;;;;;;0.10;0.00;;;;;;;32.73;nan;101397.94;10468365;28;20041;-83
2023/08/12 11:18:59;;;;;;;0.00;0.00;;;;;;;32.50;nan;101396.66;10477726;28;20430;-82
2023/08/12 11:24:02;;;;;;;0.50;0.50;;;;;;;32.81;nan;101389.47;10487473;28;20516;-83
2023/08/12 11:29:11;;;;;;;0.00;0.00;;;;;;;33.51;nan;101375.38;10471464;28;20086;-84
2023/08/12 11:34:12;;;;;;;0.22;0.10;;;;;;;32.91;nan;101384.47;10484811;28;20117;-84
2023/08/12 11:39:15;;;;;;;0.10;0.10;;;;;;;32.25;nan;101367.88;10474955;28;20100;-83
2023/08/12 11:44:20;;;;;;;0.15;0.10;;;;;;;30.53;nan;101324.81;10458991;28;20072;-83
2023/08/12 11:49:22;;;;;;;0.10;0.10;;;;;;;31.82;nan;101298.41;10476770;28;20040;-83
2023/08/12 11:54:24;;;;;;;0.00;0.00;;;;;;;32.42;nan;101330.41;10508017;28;20044;-83
2023/08/12 11:59:27;;;;;;;0.10;0.00;;;;;;;31.08;nan;101325.50;10500868;28;20056;-82
2023/08/12 12:04:31;;;;;;;0.10;0.10;;;;;;;32.01;nan;101363.03;10488587;28;20076;-83
2023/08/12 12:09:33;;;;;;;0.00;0.00;;;;;;;31.16;nan;101346.41;10493462;28;20412;-84
2023/08/12 12:14:36;;;;;;;0.00;0.00;;;;;;;32.50;nan;101363.78;10457009;28;20084;-85
2023/08/12 12:19:40;;;;;;;0.03;0.00;;;;;;;31.98;nan;101373.00;10505954;28;20505;-83
2023/08/12 12:24:46;;;;;;;0.05;0.00;;;;;;;32.66;nan;101390.38;10509920;28;20344;-83
2023/08/12 12:29:48;;;;;;;0.08;0.08;;;;;;;33.70;nan;101392.88;10465141;28;20090;-82
2023/08/12 12:34:49;;;;;;;0.00;0.00;;;;;;;32.53;nan;101409.78;10457642;28;20426;-83
2023/08/12 12:39:51;;;;;;;0.20;0.17;;;;;;;32.53;nan;101404.44;10463530;28;20040;-82
2023/08/12 12:44:53;;;;;;;0.80;0.05;;;;;;;32.06;nan;101410.69;10487901;28;20032;-81
2023/08/12 12:49:55;;;;;;;0.00;0.00;;;;;;;32.97;nan;101417.91;10481680;28;20044;-82
2023/08/12 12:54:58;;;;;;;0.00;0.00;;;;;;;32.52;nan;101421.38;10491878;28;20040;-83
2023/08/12 13:00:00;;;;;;;0.00;0.00;;;;;;;32.11;nan;101422.81;10481160;28;20043;-82
2023/08/12 13:05:03;;;;;;;0.00;0.00;;;;;;;32.37;nan;101430.28;10492980;28;20047;-82
2023/08/12 13:10:05;;;;;;;0.00;0.00;;;;;;;32.25;nan;101423.84;10486755;28;20064;-81
2023/08/12 13:15:07;;;;;;;0.10;0.05;;;;;;;32.23;nan;101426.63;10496131;28;20048;-83
2023/08/12 13:20:09;;;;;;;0.00;0.00;;;;;;;32.62;nan;101436.84;10479260;28;20049;-81
2023/08/12 13:25:12;;;;;;;0.10;0.10;;;;;;;32.61;nan;101429.81;10487521;28;20049;-83
2023/08/12 13:30:13;;;;;;;0.00;0.00;;;;;;;32.57;nan;101446.00;10471328;28;20040;-82
2023/08/12 13:35:19;;;;;;;0.30;0.00;;;;;;;32.47;nan;101436.81;10479498;28;20162;-83
2023/08/12 13:40:20;;;;;;;0.00;0.00;;;;;;;33.10;nan;101442.88;10511043;28;20426;-80
2023/08/12 13:45:23;;;;;;;0.00;0.00;;;;;;;33.89;nan;101445.19;10494344;28;20041;-82
2023/08/12 13:50:25;;;;;;;0.55;0.20;;;;;;;33.90;nan;101441.56;10494277;28;20055;-82
2023/08/12 13:55:27;;;;;;;0.00;0.00;;;;;;;33.12;nan;101445.47;10487428;28;20044;-82
2023/08/12 14:00:28;;;;;;;0.08;0.08;;;;;;;34.13;nan;101448.06;10476840;28;20113;-81
2023/08/12 14:05:30;;;;;;;0.00;0.00;;;;;;;34.03;nan;101437.13;10506086;28;20048;-82
2023/08/12 14:10:32;;;;;;;0.30;0.00;;;;;;;33.67;nan;101446.53;10477118;28;20055;-81
2023/08/12 14:15:34;;;;;;;0.00;0.00;;;;;;;33.13;nan;101447.19;10498344;28;20446;-81
2023/08/12 14:20:36;;;;;;;0.00;0.00;;;;;;;32.98;nan;101451.63;10491631;28;20129;-81
2023/08/12 14:25:38;;;;;;;1.88;0.28;;;;;;;32.65;nan;101447.34;10480282;28;20491;-81
2023/08/12 14:30:40;;;;;;;0.20;0.10;;;;;;;34.02;nan;101446.09;10478871;28;20116;-81
2023/08/12 14:35:41;;;;;;;0.28;0.15;;;;;;;32.86;nan;101443.44;10467414;28;20403;-80
2023/08/12 14:40:47;;;;;;;0.10;0.10;;;;;;;33.46;nan;101449.63;10459419;28;20409;-82
2023/08/12 14:45:49;;;;;;;0.22;0.22;;;;;;;33.72;nan;101449.75;10470654;28;20077;-81
2023/08/12 14:50:50;;;;;;;0.10;0.10;;;;;;;33.52;nan;101449.22;10464249;28;20172;-80
2023/08/12 14:55:52;;;;;;;0.08;0.08;;;;;;;33.43;nan;101449.78;10488400;28;20044;-81
2023/08/12 15:00:54;;;;;;;0.00;0.00;;;;;;;33.22;nan;101451.94;10487137;28;20052;-82
2023/08/12 15:06:03;;;;;;;0.00;0.00;;;;;;;33.64;nan;101452.06;10520889;28;20080;-80
2023/08/12 15:11:04;;;;;;;;;;;;;;;33.81;nan;101451.84;10501936;28;20407;-82
2023/08/12 15:16:06;;;;;;;0.20;0.15;;;;;;;33.92;nan;101450.34;10489420;28;19973;-80
2023/08/12 15:21:08;;;;;;;0.00;0.00;;;;;;;33.15;nan;101464.81;10483464;28;20052;-81
2023/08/12 15:26:10;;;;;;;5.15;0.75;;;;;;;32.98;nan;101463.19;10482972;28;20115;-80
2023/08/12 15:31:12;;;;;;;0.00;0.00;;;;;;;33.17;nan;101465.59;10483055;28;20051;-81
2023/08/12 15:36:14;;;;;;;0.00;0.00;;;;;;;34.15;nan;101463.03;10500038;28;20389;-80
2023/08/12 15:41:16;;;;;;;0.00;0.00;;;;;;;33.15;nan;101467.50;10491937;28;20483;-81
2023/08/12 15:46:18;;;;;;;0.00;0.00;;;;;;;33.25;nan;101472.28;10502066;28;20086;-80
2023/08/12 15:51:19;;;;;;;0.00;0.00;;;;;;;33.28;nan;101472.06;10522822;28;20047;-80
2023/08/12 15:56:21;;;;;;;0.00;0.00;;;;;;;33.76;nan;101467.34;10494044;28;20044;-81
2023/08/12 16:01:23;;;;;;;0.00;0.00;;;;;;;33.22;nan;101474.19;10473356;28;20457;-81
2023/08/12 16:06:25;;;;;;;0.03;0.03;;;;;;;33.63;nan;101467.25;10507603;28;20047;-80
2023/08/12 16:11:27;;;;;;;0.00;0.00;;;;;;;33.67;nan;101467.91;10480452;28;20055;-80
2023/08/12 16:16:29;;;;;;;0.55;0.55;;;;;;;33.18;nan;101464.63;10490722;28;20044;-80
2023/08/12 16:21:31;;;;;;;0.00;0.00;;;;;;;32.80;nan;101465.16;10487301;28;20437;-81
2023/08/12 16:26:33;;;;;;;0.10;0.10;;;;;;;32.67;nan;101462.31;10494504;28;20410;-81
2023/08/12 16:31:35;;;;;;;0.05;0.05;;;;;;;32.23;nan;101453.28;10485010;28;20500;-81
2023/08/12 16:36:40;;;;;;;1.10;0.43;;;;;;;32.77;nan;101453.78;10496724;28;20047;-80
2023/08/12 16:41:42;;;;;;;0.05;0.03;;;;;;;31.66;nan;101448.44;10504575;28;20044;-81
2023/08/12 16:46:44;;;;;;;0.28;0.28;;;;;;;31.58;nan;101455.94;10481101;28;20179;-80
2023/08/12 16:51:45;;;;;;;0.00;0.00;;;;;;;32.39;nan;101457.72;10484682;28;20547;-80
2023/08/12 16:56:47;;;;;;;0.00;0.00;;;;;;;32.70;nan;101461.28;10464005;28;20094;-82
2023/08/12 17:01:49;;;;;;;0.00;0.00;;;;;;;32.79;nan;101460.78;10483338;28;20138;-80
2023/08/12 17:06:51;;;;;;;0.00;0.00;;;;;;;33.67;nan;101451.88;10498968;28;20047;-80
2023/08/12 17:11:53;;;;;;;0.10;0.10;;;;;;;32.32;nan;101456.38;10478914;28;20790;-82
2023/08/12 17:16:55;;;;;;;0.00;0.00;;;;;;;31.66;nan;101463.56;10486152;28;20046;-81
2023/08/12 17:21:57;;;;;;;0.05;0.00;;;;;;;31.80;nan;101461.00;10486066;28;20048;-80
2023/08/12 17:26:59;;;;;;;0.03;0.00;;;;;;;31.93;nan;101472.69;10510355;28;20074;-80
2023/08/12 17:32:00;;;;;;;0.30;0.08;;;;;;;31.95;nan;101478.81;10521626;28;20507;-80
2023/08/12 17:37:03;;;;;;;0.00;0.00;;;;;;;31.31;nan;101485.78;10459748;28;20098;-80
2023/08/12 17:42:04;;;;;;;0.28;0.00;;;;;;;31.11;nan;101484.16;10488115;28;20044;-80
2023/08/12 17:47:06;;;;;;;0.00;0.00;;;;;;;30.60;nan;101486.72;10463187;28;20040;-80
2023/08/12 17:52:08;;;;;;;0.08;0.03;;;;;;;30.68;nan;101498.69;10464128;28;20093;-81
2023/08/12 17:57:09;;;;;;;0.13;0.10;;;;;;;31.36;nan;101501.50;10486805;28;20053;-81
2023/08/12 18:02:11;;;;;;;0.05;0.05;;;;;;;32.36;nan;101505.88;10461773;28;20840;-80
2023/08/12 18:07:13;;;;;;;0.08;0.08;;;;;;;32.43;nan;101509.94;10501824;28;20048;-80
2023/08/12 18:12:14;;;;;;;0.43;0.15;;;;;;;32.45;nan;101513.38;10476187;28;20074;-79
2023/08/12 18:17:16;;;;;;;0.00;0.00;;;;;;;31.95;nan;101518.78;10476706;28;20044;-79
2023/08/12 18:22:18;;;;;;;0.00;0.00;;;;;;;32.84;nan;101519.19;10475629;28;20420;-79
2023/08/12 18:27:19;;;;;;;0.00;0.00;;;;;;;32.18;nan;101524.63;10502453;28;20040;-79
2023/08/12 18:32:21;;;;;;;0.00;0.00;;;;;;;32.80;nan;101537.19;10489456;28;20077;-79
2023/08/12 18:37:23;;;;;;;0.00;0.00;;;;;;;32.64;nan;101537.16;10487379;28;20102;-79
2023/08/12 18:42:25;;;;;;;0.00;0.00;;;;;;;32.22;nan;101536.00;10491611;28;20052;-79
2023/08/12 18:47:26;;;;;;;0.00;0.00;;;;;;;32.05;nan;101535.09;10504306;28;20052;-79
2023/08/12 18:52:28;;;;;;;0.00;0.00;;;;;;;30.98;nan;101531.78;10484647;28;20041;-80
2023/08/12 18:57:30;;;;;;;0.00;0.00;;;;;;;31.51;nan;101550.41;10501853;28;20090;-79
2023/08/12 19:02:34;;;;;;;0.00;0.00;;;;;;;31.55;nan;101557.31;10484269;28;20048;-80
2023/08/12 19:07:36;;;;;;;0.10;0.00;;;;;;;30.80;nan;101554.84;10517751;28;20438;-79
2023/08/12 19:12:37;;;;;;;0.00;0.00;;;;;;;31.38;nan;101560.88;10500367;28;20102;-79
2023/08/12 19:17:39;;;;;;;0.00;0.00;;;;;;;30.97;nan;101560.19;10464455;28;20454;-79
2023/08/12 19:22:41;;;;;;;0.00;0.00;;;;;;;30.51;nan;101562.44;10502476;28;20036;-79
2023/08/12 19:27:43;;;;;;;0.10;0.00;;;;;;;30.62;nan;101557.47;10507041;28;20515;-79
2023/08/12 19:32:49;;;;;;;0.00;0.00;;;;;;;30.91;nan;101557.84;10485038;28;20044;-79
2023/08/12 19:37:55;;;;;;;0.03;0.03;;;;;;;29.75;nan;101561.41;10509938;28;20048;-79
2023/08/12 19:42:57;;;;;;;0.00;0.00;;;;;;;30.55;nan;101561.38;10487534;28;20068;-79
2023/08/12 19:47:58;;;;;;;0.20;0.10;;;;;;;30.13;nan;101565.06;10510432;28;20086;-79
2023/08/12 19:53:00;;;;;;;0.00;0.00;;;;;;;30.64;nan;101568.88;10482971;28;20056;-79
2023/08/12 19:58:02;;;;;;;0.00;0.00;;;;;;;30.41;nan;101577.09;10515447;28;20049;-79
2023/08/12 20:03:04;;;;;;;0.00;0.00;;;;;;;30.59;nan;101581.56;10481674;28;20032;-79
2023/08/12 20:08:06;;;;;;;0.13;0.13;;;;;;;30.06;nan;101583.13;10495951;28;20091;-79
2023/08/12 20:13:07;;;;;;;0.00;0.00;;;;;;;30.32;nan;101581.91;10502785;28;20048;-79
2023/08/12 20:18:09;;;;;;;0.28;0.28;;;;;;;30.30;nan;101581.09;10484863;28;20408;-79
2023/08/12 20:23:11;;;;;;;0.00;0.00;;;;;;;29.90;nan;101582.91;10488336;28;20059;-79
2023/08/12 20:28:12;;;;;;;3.08;0.10;;;;;;;29.97;nan;101578.22;10486730;28;20036;-79
2023/08/12 20:33:14;;;;;;;0.00;0.00;;;;;;;29.56;nan;101576.44;10465598;28;20139;-79
2023/08/12 20:38:18;;;;;;;0.28;0.20;;;;;;;25.16;nan;101533.88;10513902;28;20454;-79
2023/08/12 20:43:19;;;;;;;0.10;0.10;;;;;;;24.63;nan;101397.25;10488171;28;20051;-79
2023/08/12 20:48:21;;;;;;;0.05;0.03;;;;;;;24.65;nan;101326.94;10499501;28;20051;-79
2023/08/12 20:53:23;;;;;;;0.00;0.00;;;;;;;24.88;nan;101328.16;10467018;28;20044;-79
2023/08/12 20:58:25;;;;;;;0.00;0.00;;;;;;;24.87;nan;101321.13;10478386;28;20113;-79
2023/08/12 21:03:26;;;;;;;0.08;0.08;;;;;;;24.69;nan;101291.75;10458775;28;20491;-79
2023/08/12 21:08:28;;;;;;;0.20;0.15;;;;;;;24.76;nan;101321.44;10460677;28;20048;-79
2023/08/12 21:13:30;;;;;;;0.10;0.10;;;;;;;24.51;nan;101292.22;10460322;28;20078;-79
2023/08/12 21:18:31;;;;;;;0.00;0.00;;;;;;;24.54;nan;101286.84;10478088;28;20048;-79
2023/08/12 21:23:33;;;;;;;0.00;0.00;;;;;;;24.46;nan;101302.00;10501950;28;20088;-79
2023/08/12 21:28:35;;;;;;;0.40;0.13;;;;;;;24.37;nan;101290.81;10492520;28;20048;-79
2023/08/12 21:33:37;;;;;;;0.10;0.10;;;;;;;24.26;nan;101276.19;10454487;28;20094;-79
2023/08/12 21:38:38;;;;;;;0.00;0.00;;;;;;;24.48;nan;101340.56;10462913;28;20423;-79
2023/08/12 21:43:40;;;;;;;0.08;0.08;;;;;;;24.46;nan;101336.25;10458893;28;20098;-79
2023/08/12 21:48:43;;;;;;;0.00;0.00;;;;;;;24.67;nan;101387.53;10442211;28;20531;-79
2023/08/12 21:53:46;;;;;;;0.00;0.00;;;;;;;24.22;nan;101375.44;10456177;28;20117;-79
2023/08/12 21:58:48;;;;;;;0.10;0.10;;;;;;;23.86;nan;101318.31;10458738;28;20523;-79
2023/08/12 22:03:49;;;;;;;0.00;0.00;;;;;;;23.85;nan;101292.91;10464755;28;20506;-80
2023/08/12 22:08:51;;;;;;;0.70;0.25;;;;;;;23.27;nan;101237.25;10454759;28;20106;-79
2023/08/12 22:13:53;;;;;;;0.45;0.20;;;;;;;23.69;nan;101245.06;10466934;28;20072;-79
2023/08/12 22:18:55;;;;;;;0.15;0.15;;;;;;;24.24;nan;101310.44;10440781;28;20500;-79
2023/08/12 22:23:57;;;;;;;0.65;0.35;;;;;;;24.16;nan;101333.47;10457975;28;20079;-79
2023/08/12 22:28:58;;;;;;;0.00;0.00;;;;;;;23.83;nan;101320.16;10455533;28;20044;-79
2023/08/12 22:34:01;;;;;;;0.00;0.00;;;;;;;23.35;nan;101298.41;10493133;28;20134;-80
2023/08/12 22:39:04;;;;;;;0.10;0.10;;;;;;;23.14;nan;101258.50;10477447;28;20036;-80
2023/08/12 22:44:06;;;;;;;0.10;0.10;;;;;;;24.00;nan;101306.63;10465991;28;20048;-79
2023/08/12 22:49:07;;;;;;;0.38;0.22;;;;;;;23.98;nan;101333.00;10462786;28;20064;-79
2023/08/12 22:54:09;;;;;;;0.15;0.10;;;;;;;24.05;nan;101353.00;10460999;28;20121;-79
2023/08/12 22:59:11;;;;;;;0.30;0.22;;;;;;;24.14;nan;101356.31;10458841;28;20117;-79
2023/08/12 23:04:13;;;;;;;0.00;0.00;;;;;;;24.19;nan;101383.41;10478091;28;20506;-79
2023/08/12 23:09:15;;;;;;;0.32;0.20;;;;;;;24.22;nan;101388.59;10473836;28;20079;-79
2023/08/12 23:14:17;;;;;;;0.40;0.10;;;;;;;24.04;nan;101403.06;10479371;28;20071;-80
2023/08/12 23:19:18;;;;;;;0.10;0.10;;;;;;;24.27;nan;101420.94;10460147;28;20134;-80
2023/08/12 23:24:20;;;;;;;2.05;0.10;;;;;;;24.37;nan;101435.63;10495356;28;20087;-79